createdAt,value
2023-09-24T00:01:45.536Z,5.10
2023-09-24T00:04:12.725Z,5.20
2023-09-24T00:06:39.393Z,5.77
2023-09-24T00:09:05.699Z,5.87
2023-09-24T00:11:32.169Z,5.40
2023-09-24T00:13:58.560Z,6.10
2023-09-24T00:16:24.960Z,5.43
2023-09-24T00:18:51.260Z,5.60
2023-09-24T00:21:19.436Z,5.43
2023-09-24T00:23:45.807Z,6.20
2023-09-24T00:26:13.097Z,5.83
2023-09-24T00:28:39.406Z,5.43
2023-09-24T00:31:05.815Z,4.90
2023-09-24T00:33:32.296Z,5.43
2023-09-24T00:36:00.515Z,5.20
2023-09-24T00:38:27.584Z,5.63
2023-09-24T00:40:53.999Z,5.63
2023-09-24T00:43:29.935Z,4.80
2023-09-24T00:45:57.987Z,5.60
2023-09-24T00:48:29.361Z,5.40
2023-09-24T00:50:58.268Z,4.90
2023-09-24T00:53:28.446Z,5.53
2023-09-24T00:55:56.364Z,5.30
2023-09-24T00:58:29.581Z,5.57
2023-09-24T01:00:56.527Z,5.60
2023-09-24T01:03:29.811Z,5.53
2023-09-24T01:05:58.147Z,6.03
2023-09-24T01:08:25.556Z,5.53
2023-09-24T01:10:53.785Z,5.40
2023-09-24T01:13:20.950Z,5.30
2023-09-24T01:15:50.734Z,5.10
2023-09-24T01:18:21.187Z,5.63
2023-09-24T01:20:47.821Z,5.77
2023-09-24T01:23:15.562Z,6.30
2023-09-24T01:25:44.484Z,5.50
2023-09-24T01:28:15.163Z,5.40
2023-09-24T01:30:41.738Z,6.43
2023-09-24T01:33:08.405Z,6.30
2023-09-24T01:35:36.415Z,7.10
2023-09-24T01:38:07.760Z,6.53
2023-09-24T01:40:36.822Z,6.97
2023-09-24T01:43:06.395Z,7.27
2023-09-24T01:45:35.775Z,7.10
2023-09-24T01:48:04.719Z,6.93
2023-09-24T01:50:35.007Z,6.77
2023-09-24T01:53:01.882Z,7.07
2023-09-24T01:55:29.247Z,5.87
2023-09-24T01:58:02.644Z,6.17
2023-09-24T02:00:29.257Z,7.20
2023-09-24T02:02:58.265Z,6.80
2023-09-24T02:05:25.054Z,6.13
2023-09-24T02:07:52.084Z,6.80
2023-09-24T02:10:19.092Z,6.07
2023-09-24T02:12:46.732Z,6.20
2023-09-24T02:15:13.815Z,5.73
2023-09-24T02:17:44.119Z,5.80
2023-09-24T02:20:33.907Z,6.00
2023-09-24T02:23:02.704Z,6.37
2023-09-24T02:25:30.775Z,6.57
2023-09-24T02:27:58.037Z,6.17
2023-09-24T02:30:27.185Z,6.60
2023-09-24T02:32:55.542Z,6.13
2023-09-24T02:35:22.522Z,5.83
2023-09-24T02:37:54.025Z,5.93
2023-09-24T02:40:30.136Z,5.33
2023-09-24T02:43:00.782Z,5.93
2023-09-24T02:45:28.648Z,5.43
2023-09-24T02:47:55.380Z,5.80
2023-09-24T02:50:25.712Z,5.57
2023-09-24T02:53:00.601Z,5.53
2023-09-24T02:55:28.549Z,5.47
2023-09-24T02:57:55.376Z,5.27
2023-09-24T03:00:27.894Z,5.37
2023-09-24T03:02:57.105Z,5.20
2023-09-24T03:05:26.006Z,5.40
2023-09-24T03:07:57.840Z,5.10
2023-09-24T03:10:25.034Z,5.30
2023-09-24T03:12:51.856Z,5.73
2023-09-24T03:15:18.573Z,5.00
2023-09-24T03:17:47.700Z,4.63
2023-09-24T03:20:18.170Z,4.73
2023-09-24T03:22:55.350Z,5.40
2023-09-24T03:25:22.339Z,5.40
2023-09-24T03:27:50.114Z,5.30
2023-09-24T03:30:18.804Z,5.20
2023-09-24T03:32:47.998Z,5.13
2023-09-24T03:35:16.904Z,4.50
2023-09-24T03:37:46.280Z,5.10
2023-09-24T03:40:15.988Z,5.30
2023-09-24T03:42:42.798Z,4.97
2023-09-24T03:45:10.486Z,4.87
2023-09-24T03:47:37.761Z,4.27
2023-09-24T03:50:05.568Z,4.80
2023-09-24T03:52:32.057Z,4.57
2023-09-24T03:55:00.851Z,4.67
2023-09-24T03:57:28.731Z,4.53
2023-09-24T03:59:56.224Z,4.60
2023-09-24T04:02:23.483Z,5.40
2023-09-24T04:04:50.238Z,4.60
2023-09-24T04:07:17.494Z,4.37
2023-09-24T04:09:44.628Z,5.27
2023-09-24T04:12:11.440Z,4.90
2023-09-24T04:14:37.823Z,4.80
2023-09-24T04:17:04.544Z,4.70
2023-09-24T04:19:32.420Z,5.03
2023-09-24T04:21:58.945Z,4.97
2023-09-24T04:24:25.381Z,3.87
2023-09-24T04:26:52.817Z,4.90
2023-09-24T04:29:19.820Z,4.80
2023-09-24T04:31:46.514Z,4.37
2023-09-24T04:34:14.370Z,4.33
2023-09-24T04:36:41.226Z,4.50
2023-09-24T04:39:10.777Z,4.90
2023-09-24T04:41:38.577Z,4.57
2023-09-24T04:44:05.241Z,4.00
2023-09-24T04:46:31.608Z,3.70
2023-09-24T04:48:58.258Z,4.10
2023-09-24T04:51:24.814Z,4.40
2023-09-24T04:53:51.256Z,3.90
2023-09-24T04:56:17.593Z,4.53
2023-09-24T04:58:44.244Z,4.17
2023-09-24T05:01:10.816Z,4.13
2023-09-24T05:03:39.792Z,4.10
2023-09-24T05:06:08.448Z,4.97
2023-09-24T05:08:35.636Z,5.00
2023-09-24T05:11:04.158Z,6.63
2023-09-24T05:13:30.820Z,8.30
2023-09-24T05:16:01.200Z,7.03
2023-09-24T05:18:28.390Z,5.83
2023-09-24T05:20:55.484Z,5.53
2023-09-24T05:23:22.221Z,6.13
2023-09-24T05:25:48.861Z,6.23
2023-09-24T05:28:15.229Z,9.97
2023-09-24T05:30:41.543Z,9.57
2023-09-24T05:33:08.624Z,9.50
2023-09-24T05:35:35.386Z,8.87
2023-09-24T05:38:02.207Z,8.53
2023-09-24T05:40:29.060Z,7.67
2023-09-24T05:42:55.419Z,8.83
2023-09-24T05:45:21.833Z,9.13
2023-09-24T05:47:48.798Z,9.47
2023-09-24T05:50:15.210Z,10.20
2023-09-24T05:52:41.719Z,9.80
2023-09-24T05:55:08.289Z,8.80
2023-09-24T05:57:34.734Z,9.57
2023-09-24T06:00:01.285Z,9.57
2023-09-24T06:02:27.641Z,9.77
2023-09-24T06:04:57.156Z,9.20
2023-09-24T06:07:23.651Z,9.07
2023-09-24T06:09:49.948Z,9.17
2023-09-24T06:12:18.808Z,9.53
2023-09-24T06:14:45.739Z,8.60
2023-09-24T06:17:12.088Z,9.23
2023-09-24T06:19:38.577Z,7.73
2023-09-24T06:22:05.022Z,7.90
2023-09-24T06:24:31.489Z,7.23
2023-09-24T06:26:57.877Z,7.30
2023-09-24T06:29:24.578Z,5.30
2023-09-24T06:31:52.319Z,4.60
2023-09-24T06:34:18.636Z,4.80
2023-09-24T06:36:44.872Z,4.73
2023-09-24T06:39:15.229Z,4.67
2023-09-24T06:41:41.697Z,4.47
2023-09-24T06:44:09.869Z,4.50
2023-09-24T06:46:36.276Z,4.20
2023-09-24T06:49:02.696Z,3.80
2023-09-24T06:51:29.202Z,3.70
2023-09-24T06:53:55.657Z,4.03
2023-09-24T06:56:22.082Z,4.67
2023-09-24T06:58:48.685Z,4.13
2023-09-24T07:01:15.182Z,4.60
2023-09-24T07:03:41.769Z,3.80
2023-09-24T07:06:08.426Z,4.40
2023-09-24T07:08:35.191Z,3.80
2023-09-24T07:11:20.434Z,4.10
2023-09-24T07:13:47.720Z,5.33
2023-09-24T07:16:14.971Z,5.67
2023-09-24T07:18:41.464Z,5.20
2023-09-24T07:21:13.883Z,5.07
2023-09-24T07:23:54.821Z,4.00
2023-09-24T07:26:25.253Z,4.77
2023-09-24T07:28:53.157Z,4.77
2023-09-24T07:31:25.133Z,4.27
2023-09-24T07:33:56.366Z,4.60
2023-09-24T07:36:32.643Z,4.67
2023-09-24T07:39:00.943Z,4.50
2023-09-24T07:41:27.534Z,4.47
2023-09-24T07:43:54.623Z,4.50
2023-09-24T07:46:21.008Z,5.30
2023-09-24T07:48:51.581Z,4.63
2023-09-24T07:51:19.157Z,4.60
2023-09-24T07:53:46.834Z,4.53
2023-09-24T07:56:14.228Z,3.73
2023-09-24T07:58:42.188Z,4.20
2023-09-24T08:01:09.789Z,4.17
2023-09-24T08:03:36.303Z,3.87
2023-09-24T08:06:03.579Z,3.33
2023-09-24T08:08:47.989Z,3.20
2023-09-24T08:11:16.750Z,4.20
2023-09-24T08:13:43.195Z,3.73
2023-09-24T08:16:09.583Z,3.73
2023-09-24T08:18:36.132Z,3.20
2023-09-24T08:21:02.865Z,3.03
2023-09-24T08:23:29.231Z,2.83
2023-09-24T08:25:55.480Z,3.47
2023-09-24T08:28:21.731Z,3.00
2023-09-24T08:30:48.055Z,3.40
2023-09-24T08:33:14.288Z,3.40
2023-09-24T08:35:43.611Z,3.30
2023-09-24T08:38:10.920Z,3.10
2023-09-24T08:40:37.285Z,2.80
2023-09-24T08:43:13.190Z,3.23
2023-09-24T08:45:39.485Z,3.40
2023-09-24T08:48:09.034Z,2.90
2023-09-24T08:50:41.110Z,3.03
2023-09-24T08:53:12.080Z,2.90
2023-09-24T08:55:42.251Z,2.50
2023-09-24T08:58:08.545Z,2.93
2023-09-24T09:00:36.340Z,3.00
2023-09-24T09:03:05.364Z,3.20
2023-09-24T09:05:35.396Z,2.87
2023-09-24T09:08:03.669Z,3.20
2023-09-24T09:10:31.060Z,2.90
2023-09-24T09:13:07.571Z,2.80
2023-09-24T09:15:34.577Z,2.73
2023-09-24T09:18:01.734Z,2.90
2023-09-24T09:20:49.332Z,2.83
2023-09-24T09:23:19.363Z,2.60
2023-09-24T09:25:57.326Z,2.43
2023-09-24T09:28:32.964Z,2.30
2023-09-24T09:31:09.583Z,2.63
2023-09-24T09:33:37.762Z,2.97
2023-09-24T09:36:04.695Z,2.40
2023-09-24T09:38:31.425Z,2.27
2023-09-24T09:40:58.742Z,2.23
2023-09-24T09:43:26.482Z,1.90
2023-09-24T09:45:55.214Z,2.13
2023-09-24T09:48:27.302Z,2.00
2023-09-24T09:50:57.599Z,2.40
2023-09-24T09:53:25.274Z,1.90
2023-09-24T09:55:54.693Z,2.03
2023-09-24T09:58:24.210Z,1.77
2023-09-24T10:00:52.800Z,2.33
2023-09-24T10:03:20.314Z,1.83
2023-09-24T10:05:47.767Z,1.80
2023-09-24T10:08:32.805Z,1.57
2023-09-24T10:10:59.174Z,1.57
2023-09-24T10:13:47.952Z,1.50
2023-09-24T10:16:26.733Z,1.80
2023-09-24T10:19:02.366Z,2.37
2023-09-24T10:21:31.772Z,1.93
2023-09-24T10:24:14.146Z,2.23
2023-09-24T10:26:51.495Z,1.60
2023-09-24T10:29:19.422Z,1.97
2023-09-24T10:32:04.500Z,1.60
2023-09-24T10:34:50.821Z,1.70
2023-09-24T10:37:17.365Z,2.10
2023-09-24T10:40:14.738Z,2.43
2023-09-24T10:42:44.662Z,1.90
2023-09-24T10:45:12.165Z,1.70
2023-09-24T10:47:40.096Z,1.40
2023-09-24T10:50:14.172Z,1.70
2023-09-24T10:52:50.045Z,1.70
2023-09-24T10:55:17.236Z,1.30
2023-09-24T10:57:47.638Z,1.47
2023-09-24T11:00:18.301Z,3.20
2023-09-24T11:02:46.526Z,1.60
2023-09-24T11:05:13.148Z,2.00
2023-09-24T11:07:39.640Z,1.37
2023-09-24T11:10:06.174Z,1.20
2023-09-24T11:12:32.520Z,1.27
2023-09-24T11:17:29.287Z,1.40
2023-09-24T11:19:55.824Z,1.40
2023-09-24T11:22:23.540Z,1.13
2023-09-24T11:25:08.808Z,1.10
2023-09-24T11:27:35.948Z,1.33
2023-09-24T11:30:03.796Z,1.23
2023-09-24T11:32:32.622Z,1.37
2023-09-24T11:35:10.546Z,1.40
2023-09-24T11:37:46.485Z,1.43
2023-09-24T11:40:25.677Z,1.20
2023-09-24T11:42:53.284Z,1.57
2023-09-24T11:45:48.078Z,1.23
2023-09-24T11:48:16.915Z,1.20
2023-09-24T11:50:46.108Z,1.40
2023-09-24T11:53:13.540Z,1.40
2023-09-24T11:55:43.630Z,1.47
2023-09-24T11:58:12.821Z,1.30
2023-09-24T12:00:39.968Z,1.43
2023-09-24T12:03:07.479Z,1.43
2023-09-24T12:05:37.398Z,1.17
2023-09-24T12:08:09.803Z,1.30
2023-09-24T12:10:41.728Z,1.00
2023-09-24T12:13:11.368Z,1.20
2023-09-24T12:15:38.211Z,1.10
2023-09-24T12:18:08.261Z,1.33
2023-09-24T12:20:35.700Z,1.33
2023-09-24T12:23:02.682Z,1.50
2023-09-24T12:25:29.799Z,1.10
2023-09-24T12:27:56.287Z,1.20
2023-09-24T12:30:23.755Z,1.17
2023-09-24T12:32:50.419Z,1.23
2023-09-24T12:35:21.156Z,1.40
2023-09-24T12:37:47.635Z,1.27
2023-09-24T12:40:14.173Z,1.23
2023-09-24T12:42:41.826Z,1.20
2023-09-24T12:45:09.105Z,0.80
2023-09-24T12:47:36.222Z,1.10
2023-09-24T12:50:04.952Z,1.13
2023-09-24T12:52:35.051Z,1.20
2023-09-24T12:55:02.425Z,1.20
2023-09-24T12:57:28.854Z,1.30
2023-09-24T12:59:55.598Z,1.20
2023-09-24T13:02:21.950Z,1.10
2023-09-24T13:04:48.293Z,1.07
2023-09-24T13:07:14.579Z,1.30
2023-09-24T13:09:41.985Z,1.43
2023-09-24T13:12:08.663Z,1.17
2023-09-24T13:14:36.386Z,1.17
2023-09-24T13:17:02.785Z,1.30
2023-09-24T13:19:29.023Z,1.70
2023-09-24T13:21:55.385Z,1.03
2023-09-24T13:24:21.993Z,1.33
2023-09-24T13:26:48.387Z,0.90
2023-09-24T13:29:14.852Z,1.03
2023-09-24T13:31:41.172Z,1.20
2023-09-24T13:34:08.504Z,1.60
2023-09-24T13:36:36.890Z,1.20
2023-09-24T13:39:04.100Z,0.93
2023-09-24T13:41:30.736Z,1.17
2023-09-24T13:43:57.233Z,1.33
2023-09-24T13:46:23.855Z,1.20
2023-09-24T13:48:50.797Z,1.13
2023-09-24T13:51:17.872Z,1.10
2023-09-24T13:53:45.914Z,1.20
2023-09-24T13:56:13.634Z,1.20
2023-09-24T13:58:40.691Z,1.10
2023-09-24T14:01:07.314Z,1.20
2023-09-24T14:03:33.936Z,2.00
2023-09-24T14:06:00.777Z,1.20
2023-09-24T14:08:46.217Z,1.20
2023-09-24T14:11:39.394Z,1.30
2023-09-24T14:14:05.799Z,1.30
2023-09-24T14:16:32.629Z,1.20
2023-09-24T14:18:59.208Z,1.10
2023-09-24T14:21:25.864Z,1.00
2023-09-24T14:23:52.250Z,1.43
2023-09-24T14:26:19.456Z,1.20
2023-09-24T14:28:45.653Z,1.10
2023-09-24T14:31:17.782Z,1.30
2023-09-24T14:33:46.139Z,0.93
2023-09-24T14:36:12.972Z,0.90
2023-09-24T14:38:39.545Z,1.07
2023-09-24T14:41:08.838Z,1.20
2023-09-24T14:43:36.489Z,1.23
2023-09-24T14:46:03.461Z,1.20
2023-09-24T14:48:30.355Z,1.17
2023-09-24T14:50:58.936Z,1.00
2023-09-24T14:53:27.182Z,0.80
2023-09-24T14:55:55.029Z,1.20
2023-09-24T14:58:22.178Z,1.07
2023-09-24T15:00:48.481Z,1.30
2023-09-24T15:03:15.382Z,1.13
2023-09-24T15:05:42.590Z,1.33
2023-09-24T15:08:10.413Z,1.10
2023-09-24T15:10:40.433Z,1.03
2023-09-24T15:13:07.382Z,1.30
2023-09-24T15:15:34.804Z,1.20
2023-09-24T15:18:03.794Z,1.50
2023-09-24T15:23:01.263Z,1.77
2023-09-24T15:25:27.616Z,1.40
2023-09-24T15:27:53.953Z,1.33
2023-09-24T15:30:22.378Z,1.37
2023-09-24T15:32:49.981Z,1.60
2023-09-24T15:35:16.943Z,1.27
2023-09-24T15:37:43.308Z,1.17
2023-09-24T15:40:11.411Z,1.23
2023-09-24T15:42:39.117Z,1.10
2023-09-24T15:45:11.370Z,1.30
2023-09-24T15:47:41.176Z,1.30
2023-09-24T15:50:08.789Z,1.33
2023-09-24T15:52:35.333Z,1.10
2023-09-24T15:55:02.047Z,1.07
2023-09-24T15:57:29.891Z,1.00
2023-09-24T15:59:56.472Z,1.10
2023-09-24T16:02:23.216Z,1.30
2023-09-24T16:04:50.214Z,1.50
2023-09-24T16:07:17.592Z,1.17
2023-09-24T16:09:44.991Z,1.87
2023-09-24T16:12:12.036Z,1.47
2023-09-24T16:14:38.025Z,1.20
2023-09-24T16:17:04.315Z,1.43
2023-09-24T16:19:31.446Z,1.70
2023-09-24T16:22:00.904Z,1.47
2023-09-24T16:24:30.172Z,1.50
2023-09-24T16:26:56.794Z,1.57
2023-09-24T16:29:26.174Z,1.33
2023-09-24T16:31:53.431Z,1.60
2023-09-24T16:34:21.000Z,1.83
2023-09-24T16:36:47.597Z,1.70
2023-09-24T16:39:15.141Z,1.73
2023-09-24T16:41:42.846Z,1.30
2023-09-24T16:44:10.857Z,1.73
2023-09-24T16:46:37.333Z,2.20
2023-09-24T16:49:03.805Z,3.00
2023-09-24T16:51:31.723Z,3.30
2023-09-24T16:53:59.964Z,2.60
2023-09-24T16:56:26.825Z,4.17
2023-09-24T16:58:53.713Z,4.40
2023-09-24T17:01:21.839Z,4.00
2023-09-24T17:03:49.194Z,15.30
2023-09-24T17:06:16.321Z,7.20
2023-09-24T17:08:44.374Z,6.10
2023-09-24T17:11:11.969Z,4.13
2023-09-24T17:13:38.494Z,3.83
2023-09-24T17:16:18.937Z,5.43
2023-09-24T17:18:48.654Z,5.40
2023-09-24T17:21:17.302Z,5.90
2023-09-24T17:23:45.494Z,6.10
2023-09-24T17:26:14.056Z,5.20
2023-09-24T17:28:41.322Z,4.63
2023-09-24T17:31:08.841Z,5.07
2023-09-24T17:33:37.502Z,5.00
2023-09-24T17:36:05.830Z,4.50
2023-09-24T17:38:33.992Z,4.40
2023-09-24T17:41:03.434Z,5.50
2023-09-24T17:43:30.038Z,5.00
2023-09-24T17:46:05.228Z,4.20
2023-09-24T17:48:32.716Z,4.23
2023-09-24T17:51:04.048Z,4.50
2023-09-24T17:53:30.670Z,4.30
2023-09-24T17:55:58.812Z,5.13
2023-09-24T17:58:25.642Z,5.28
2023-09-24T18:00:52.615Z,4.40
2023-09-24T18:03:24.777Z,3.93
2023-09-24T18:05:51.964Z,4.87
2023-09-24T18:08:23.737Z,5.20
2023-09-24T18:10:50.915Z,6.20
2023-09-24T18:13:17.652Z,5.40
2023-09-24T18:15:45.297Z,5.97
2023-09-24T18:18:13.517Z,6.93
2023-09-24T18:20:41.202Z,6.43
2023-09-24T18:23:09.973Z,7.13
2023-09-24T18:25:39.745Z,6.50
2023-09-24T18:28:08.126Z,7.43
2023-09-24T18:30:38.284Z,7.10
2023-09-24T18:33:06.673Z,7.43
2023-09-24T18:35:33.763Z,9.00
2023-09-24T18:38:00.425Z,9.00
2023-09-24T18:40:26.994Z,8.40
2023-09-24T18:42:53.903Z,8.90
2023-09-24T18:45:20.548Z,8.90
2023-09-24T18:47:47.647Z,8.97
2023-09-24T18:50:14.250Z,8.63
2023-09-24T18:52:40.973Z,8.67
2023-09-24T18:55:08.939Z,7.53
2023-09-24T18:57:35.440Z,9.60
2023-09-24T19:00:04.954Z,9.77
2023-09-24T19:02:32.041Z,10.03
2023-09-24T19:04:58.673Z,9.97
2023-09-24T19:07:25.576Z,9.63
2023-09-24T19:09:52.232Z,10.53
2023-09-24T19:12:18.750Z,10.50
2023-09-24T19:14:45.321Z,9.90
2023-09-24T19:17:12.646Z,12.83
2023-09-24T19:19:39.533Z,11.37
2023-09-24T19:22:07.046Z,11.13
2023-09-24T19:24:33.542Z,12.25
2023-09-24T19:27:04.193Z,11.88
2023-09-24T19:29:31.586Z,11.90
2023-09-24T19:31:59.170Z,11.40
2023-09-24T19:34:28.986Z,12.53
2023-09-24T19:36:55.482Z,12.17
2023-09-24T19:39:23.220Z,12.43
2023-09-24T19:41:50.105Z,12.00
2023-09-24T19:44:20.204Z,13.50
2023-09-24T19:46:46.785Z,12.50
2023-09-24T19:49:13.623Z,13.30
2023-09-24T19:51:41.603Z,13.87
2023-09-24T19:54:08.103Z,13.97
2023-09-24T19:56:34.884Z,13.67
2023-09-24T19:59:02.107Z,14.33
2023-09-24T20:01:29.251Z,13.67
2023-09-24T20:03:59.413Z,13.53
2023-09-24T20:06:26.214Z,13.00
2023-09-24T20:08:52.946Z,13.67
2023-09-24T20:11:20.518Z,14.07
2023-09-24T20:13:51.277Z,14.10
2023-09-24T20:16:17.936Z,13.67
2023-09-24T20:18:44.874Z,13.77
2023-09-24T20:21:11.691Z,14.03
2023-09-24T20:23:38.382Z,14.40
2023-09-24T20:26:05.107Z,14.00
2023-09-24T20:28:41.633Z,14.13
2023-09-24T20:31:15.673Z,13.60
2023-09-24T20:33:59.860Z,14.03
2023-09-24T20:36:28.660Z,13.70
2023-09-24T20:38:58.040Z,12.80
2023-09-24T20:41:24.905Z,13.23
2023-09-24T20:43:52.522Z,12.27
2023-09-24T20:46:20.668Z,13.27
2023-09-24T20:48:49.325Z,13.60
2023-09-24T20:51:16.146Z,12.97
2023-09-24T20:53:44.892Z,12.60
2023-09-24T20:56:11.718Z,12.27
2023-09-24T20:58:38.820Z,13.20
2023-09-24T21:01:08.550Z,12.50
2023-09-24T21:03:35.212Z,13.10
2023-09-24T21:06:04.889Z,13.20
2023-09-24T21:08:33.757Z,13.03
2023-09-24T21:11:00.202Z,14.23
2023-09-24T21:13:26.672Z,14.57
2023-09-24T21:15:53.143Z,14.77
2023-09-24T21:18:19.574Z,13.37
2023-09-24T21:20:47.180Z,12.87
2023-09-24T21:23:13.582Z,12.87
2023-09-24T21:25:40.052Z,13.53
2023-09-24T21:28:06.611Z,12.33
2023-09-24T21:30:34.239Z,12.57
2023-09-24T21:33:01.710Z,11.80
2023-09-24T21:35:30.822Z,11.97
2023-09-24T21:37:57.225Z,14.37
2023-09-24T21:40:23.540Z,13.73
2023-09-24T21:42:49.950Z,13.63
2023-09-24T21:45:16.394Z,13.67
2023-09-24T21:47:46.632Z,11.80
2023-09-24T21:50:13.246Z,12.03
2023-09-24T21:52:39.674Z,11.90
2023-09-24T21:55:07.582Z,11.10
2023-09-24T21:57:34.071Z,11.80
2023-09-24T22:00:01.317Z,10.37
2023-09-24T22:02:37.296Z,12.50
2023-09-24T22:05:13.410Z,11.50
2023-09-24T22:07:40.013Z,11.10
2023-09-24T22:10:06.736Z,11.30
2023-09-24T22:12:33.938Z,11.50
2023-09-24T22:15:00.120Z,12.33
2023-09-24T22:17:26.816Z,11.00
2023-09-24T22:19:53.192Z,12.40
2023-09-24T22:22:19.637Z,10.90
2023-09-24T22:24:46.054Z,11.30
2023-09-24T22:27:12.414Z,11.50
2023-09-24T22:29:38.701Z,11.27
2023-09-24T22:32:05.841Z,11.37
2023-09-24T22:34:32.874Z,11.70
2023-09-24T22:36:59.246Z,11.73
2023-09-24T22:39:25.756Z,11.20
2023-09-24T22:41:52.314Z,10.60
2023-09-24T22:44:18.991Z,10.60
2023-09-24T22:46:45.386Z,11.00
2023-09-24T22:49:11.765Z,12.07
2023-09-24T22:51:38.194Z,11.73
2023-09-24T22:54:04.616Z,10.90
2023-09-24T22:56:31.010Z,10.63
2023-09-24T22:58:58.508Z,10.80
2023-09-24T23:01:24.979Z,10.70
2023-09-24T23:03:51.802Z,10.30
2023-09-24T23:06:18.846Z,11.00
2023-09-24T23:08:45.193Z,10.97
2023-09-24T23:11:11.951Z,11.47
2023-09-24T23:13:39.320Z,11.33
2023-09-24T23:16:05.709Z,11.80
2023-09-24T23:18:32.378Z,10.90
2023-09-24T23:20:58.799Z,11.00
2023-09-24T23:23:25.266Z,11.00
2023-09-24T23:25:51.842Z,10.83
2023-09-24T23:28:18.444Z,10.27
2023-09-24T23:30:45.734Z,10.37
2023-09-24T23:33:13.413Z,9.97
2023-09-24T23:35:41.710Z,10.50
2023-09-24T23:38:08.750Z,11.60
2023-09-24T23:40:35.071Z,10.53
2023-09-24T23:43:02.690Z,9.63
2023-09-24T23:45:37.048Z,10.70
2023-09-24T23:48:08.972Z,10.63
2023-09-24T23:50:39.035Z,11.03
2023-09-24T23:53:07.363Z,10.00
2023-09-24T23:55:35.720Z,9.90
2023-09-24T23:58:02.502Z,10.77
